New Smyrna Beach, FL

8:45 AM EDT on October 21, 2014 (GMT -0400)
Ormond Beach Municipal | Change Station
CLOSE
Current Station
Airport
Location: Ormond Beach,
Elevation: 30 ft
Nearby Weather Stations

Elev 30 ft 29.30 °N, 81.11 °W | Updated 55 minutes ago

Mostly Cloudy
Mostly Cloudy
64 °F
Feels Like 64 °F
N
0
Wind Variable Wind from North

Today
High -- | Low -- °F
--% Chance of Precip.
Yesterday
High -- | Low -- °F
Precip. -- in
7:28 AM 6:47 PM
Waning Crescent, 6% visible
Pressure 29.96 in
Visibility 10.0 miles
Clouds Clear
Dew Point 64 °F
Humidity 100%
Rainfall 0.00 in
Snow Depth Not available.
UV 0 out of 12
Pollen 5.30 out of 12
Air Quality Not available.
Flu Activity Local Activity
METAR KOMN 211150Z 00000KT 10SM SKC 18/18 A2996

More Conditions Fewer Conditions

Pressure 29.96 in
Visibility 10.0 miles
Clouds Clear
Dew Point 64 °F
Humidity 100%
Rainfall 0.00 in
Snow Depth Not available.
UV 0 out of 12
Pollen 5.30 out of 12
Air Quality Not available.
Flu Activity Local Activity
METAR KOMN 211150Z 00000KT 10SM SKC 18/18 A2996

More Conditions Fewer Conditions

10-Day Weather Forecast

Almanac

Astronomy

Oct. 21, 2014 Rise Set
Actual Time 7:28 AM EDT 6:47 PM EDT
Civil Twilight 7:04 AM EDT 7:11 PM EDT
Nautical Twilight 6:37 AM EDT 7:39 PM EDT
Astronomical Twilight 6:09 AM EDT 8:07 PM EDT
Moon 5:22 AM EDT 5:32 PM EDT
Length of Visible Light 12h 07m
Length of Day
11h 18m
Tomorrow will be 1m 38s shorter.
Waning Crescent, 6% of the Moon is Illuminated
Today
Waning Crescent
Oct 23
New
Oct 30
First Quarter
Nov 6
Full
Nov 14
Last Quarter

Today's Extremes

State Highs State Lows

Community

WunderPhotos

Upload Photos

1,763,649 photos uploaded!

Nearby

Snow Depth

Station Depth Elevation
No new snow has been reported.

Earthquake Activity

City Distance Mag. Time & Date
No recent earthquake activity has been reported nearby.
Minimum magnitude displayed is 2.5.

Coastal Water Temperatures

Place Temperature
Trident Pier, FL 80.1 °F
Mayport (Bar Pilots Dock), FL 78.1 °F
Fernandina Beach, FL 75.9 °F
McKay Bay Entrance, FL 81.0 °F

Nearby Weather Stations